Back to Top

Language: 

My Weather Underground Personal Weather Station Historical Data with Graphs...

Delerius Weather Station Historical Data
Daily Summary for September 27, 2017 Units:  English    Metric   Both
« Previous Day
Next Day »
Daily Weekly Monthly Yearly Custom
  High: Low: Average:
Temperature: 63.9 °F 55.8 °F 58.5 °F
Dew Point: 58.1 °F 53.8 °F 55.4 °F
Humidity: 97 % 75 % 90 %
Wind Speed: 12.0 mph 1.0 mph 6.8 mph
Wind Gust: 22.0 mph - -
Wind:- - SE
Pressure: 30.20 in 29.97 in -
Precipitation: 0.32 in    
Historical Graphs
 
 
Tabular Data for September 27, 2017
Time Temperature Dew Point Pressure Wind Wind Speed Wind Gust Humidity Rainfall Rate (Hourly) solar Conditions
00:04 55.9 °F 54.5 °F 30.20 in ESE 3.0 mph 6.0 mph 95 % 0.00 in 0 W/m2
00:10 55.9 °F 54.5 °F 30.20 in East 2.0 mph 6.0 mph 95 % 0.00 in 0 W/m2
00:15 55.9 °F 54.5 °F 30.20 in ESE 3.0 mph 6.0 mph 95 % 0.00 in 0 W/m2
00:20 55.9 °F 54.5 °F 30.20 in ESE 3.0 mph 6.0 mph 95 % 0.00 in 0 W/m2
00:25 56.1 °F 54.7 °F 30.20 in ESE 2.0 mph 6.0 mph 95 % 0.00 in 0 W/m2
00:30 56.1 °F 54.7 °F 30.20 in ESE 2.0 mph 6.0 mph 95 % 0.00 in 0 W/m2
00:35 56.1 °F 54.7 °F 30.19 in ESE 2.0 mph 6.0 mph 95 % 0.00 in 0 W/m2
00:40 56.1 °F 54.7 °F 30.20 in ESE 1.0 mph 4.0 mph 95 % 0.00 in 0 W/m2
00:45 56.1 °F 54.7 °F 30.19 in ESE 1.0 mph 6.0 mph 95 % 0.00 in 0 W/m2
00:50 56.1 °F 54.7 °F 30.19 in ESE 1.0 mph 6.0 mph 95 % 0.00 in 0 W/m2
00:55 56.1 °F 55.0 °F 30.19 in ESE 2.0 mph 5.0 mph 96 % 0.00 in 0 W/m2
01:00 56.3 °F 55.2 °F 30.19 in ESE 2.0 mph 5.0 mph 96 % 0.00 in 0 W/m2
01:05 56.3 °F 55.2 °F 30.19 in East 3.0 mph 6.0 mph 96 % 0.00 in 0 W/m2
01:10 56.3 °F 55.2 °F 30.19 in East 3.0 mph 6.0 mph 96 % 0.00 in 0 W/m2
01:15 56.3 °F 55.2 °F 30.19 in East 2.0 mph 6.0 mph 96 % 0.00 in 0 W/m2
01:20 56.5 °F 55.4 °F 30.19 in ESE 3.0 mph 7.0 mph 96 % 0.00 in 0 W/m2
01:25 56.5 °F 55.4 °F 30.19 in ESE 3.0 mph 7.0 mph 96 % 0.00 in 0 W/m2
01:30 56.5 °F 55.4 °F 30.19 in ESE 2.0 mph 5.0 mph 96 % 0.00 in 0 W/m2
01:35 56.5 °F 55.4 °F 30.19 in ESE 2.0 mph 6.0 mph 96 % 0.00 in 0 W/m2
01:40 56.5 °F 55.4 °F 30.19 in East 2.0 mph 6.0 mph 96 % 0.00 in 0 W/m2
01:45 56.5 °F 55.4 °F 30.18 in East 2.0 mph 5.0 mph 96 % 0.00 in 0 W/m2
01:50 56.5 °F 55.4 °F 30.18 in East 2.0 mph 5.0 mph 96 % 0.00 in 0 W/m2
01:55 56.5 °F 55.4 °F 30.18 in East 2.0 mph 5.0 mph 96 % 0.00 in 0 W/m2
02:00 56.5 °F 55.4 °F 30.18 in East 3.0 mph 6.0 mph 96 % 0.00 in 0 W/m2
02:05 56.5 °F 55.4 °F 30.18 in East 2.0 mph 6.0 mph 96 % 0.00 in 0 W/m2
02:07 56.5 °F 55.4 °F 30.18 in East 2.0 mph 6.0 mph 96 % 0.00 in 0 W/m2
02:12 56.5 °F 55.4 °F 30.18 in East 3.0 mph 8.0 mph 96 % 0.00 in 0 W/m2
02:17 56.5 °F 55.4 °F 30.18 in ESE 4.0 mph 8.0 mph 96 % 0.00 in 0 W/m2
02:22 56.5 °F 55.4 °F 30.17 in ESE 4.0 mph 6.0 mph 96 % 0.00 in 0 W/m2
02:27 56.5 °F 55.4 °F 30.17 in East 4.0 mph 8.0 mph 96 % 0.00 in 0 W/m2
02:32 56.5 °F 55.4 °F 30.17 in East 4.0 mph 8.0 mph 96 % 0.00 in 0 W/m2
02:37 56.5 °F 55.6 °F 30.17 in East 3.0 mph 7.0 mph 97 % 0.00 in 0 W/m2
02:43 56.5 °F 55.6 °F 30.17 in East 3.0 mph 7.0 mph 97 % 0.00 in 0 W/m2
02:48 56.5 °F 55.6 °F 30.17 in East 2.0 mph 7.0 mph 97 % 0.00 in 0 W/m2
02:53 56.5 °F 55.6 °F 30.17 in East 2.0 mph 7.0 mph 97 % 0.00 in 0 W/m2
02:58 56.5 °F 55.6 °F 30.17 in East 3.0 mph 7.0 mph 97 % 0.00 in 0 W/m2
03:03 56.5 °F 55.6 °F 30.17 in East 3.0 mph 8.0 mph 97 % 0.00 in 0 W/m2
03:08 56.5 °F 55.6 °F 30.17 in East 4.0 mph 8.0 mph 97 % 0.00 in 0 W/m2
03:13 56.5 °F 55.6 °F 30.17 in East 4.0 mph 8.0 mph 97 % 0.00 in 0 W/m2
03:18 56.5 °F 55.6 °F 30.17 in ESE 5.0 mph 9.0 mph 97 % 0.00 in 0 W/m2
03:23 56.5 °F 55.6 °F 30.16 in ESE 5.0 mph 9.0 mph 97 % 0.00 in 0 W/m2
03:28 56.5 °F 55.6 °F 30.16 in ESE 5.0 mph 8.0 mph 97 % 0.00 in 0 W/m2
03:33 56.5 °F 55.6 °F 30.16 in ESE 5.0 mph 8.0 mph 97 % 0.00 in 0 W/m2
03:38 56.5 °F 55.6 °F 30.16 in ESE 5.0 mph 10.0 mph 97 % 0.00 in 0 W/m2
03:43 56.5 °F 55.6 °F 30.16 in ESE 6.0 mph 10.0 mph 97 % 0.00 in 0 W/m2
03:48 56.5 °F 55.6 °F 30.16 in SE 6.0 mph 10.0 mph 97 % 0.00 in 0 W/m2
03:53 56.7 °F 55.8 °F 30.16 in SE 5.0 mph 8.0 mph 97 % 0.00 in 0 W/m2
03:58 56.7 °F 55.8 °F 30.16 in ESE 4.0 mph 7.0 mph 97 % 0.00 in 0 W/m2
04:03 56.5 °F 55.6 °F 30.16 in ESE 5.0 mph 9.0 mph 97 % 0.00 in 0 W/m2
04:08 56.5 °F 55.6 °F 30.16 in ESE 5.0 mph 9.0 mph 97 % 0.00 in 0 W/m2
04:13 56.5 °F 55.6 °F 30.16 in ESE 6.0 mph 12.0 mph 97 % 0.00 in 0 W/m2
04:18 56.3 °F 55.5 °F 30.16 in ESE 6.0 mph 12.0 mph 97 % 0.00 in 0 W/m2
04:23 56.3 °F 55.5 °F 30.16 in ESE 6.0 mph 10.0 mph 97 % 0.00 in 0 W/m2
04:27 56.1 °F 55.3 °F 30.16 in ESE 6.0 mph 10.0 mph 97 % 0.00 in 0 W/m2
04:32 56.1 °F 55.3 °F 30.16 in ESE 5.0 mph 10.0 mph 97 % 0.00 in 0 W/m2
04:37 56.1 °F 55.3 °F 30.16 in ESE 5.0 mph 10.0 mph 97 % 0.00 in 0 W/m2
04:38 56.1 °F 55.3 °F 30.16 in ESE 5.0 mph 10.0 mph 97 % 0.00 in 0 W/m2
04:43 56.1 °F 55.3 °F 30.16 in ESE 4.0 mph 10.0 mph 97 % 0.00 in 0 W/m2
04:48 55.9 °F 55.1 °F 30.16 in ESE 4.0 mph 8.0 mph 97 % 0.00 in 0 W/m2
04:53 55.9 °F 55.1 °F 30.16 in ESE 5.0 mph 8.0 mph 97 % 0.00 in 0 W/m2
04:58 55.9 °F 55.1 °F 30.16 in ESE 5.0 mph 8.0 mph 97 % 0.00 in 0 W/m2
05:03 55.9 °F 55.1 °F 30.15 in ESE 5.0 mph 8.0 mph 97 % 0.00 in 0 W/m2
05:08 55.9 °F 55.1 °F 30.15 in ESE 5.0 mph 8.0 mph 97 % 0.00 in 0 W/m2
05:13 55.9 °F 55.1 °F 30.15 in ESE 5.0 mph 10.0 mph 97 % 0.00 in 0 W/m2
05:18 55.9 °F 55.1 °F 30.15 in ESE 6.0 mph 10.0 mph 97 % 0.00 in 0 W/m2
05:23 55.9 °F 55.1 °F 30.15 in ESE 5.0 mph 8.0 mph 97 % 0.00 in 0 W/m2
05:28 55.9 °F 55.1 °F 30.15 in ESE 4.0 mph 7.0 mph 97 % 0.00 in 0 W/m2
05:33 55.8 °F 54.9 °F 30.15 in ESE 5.0 mph 11.0 mph 97 % 0.00 in 0 W/m2
05:38 55.8 °F 54.9 °F 30.15 in ESE 6.0 mph 11.0 mph 97 % 0.00 in 0 W/m2
05:43 55.8 °F 54.9 °F 30.15 in ESE 5.0 mph 9.0 mph 97 % 0.00 in 0 W/m2
05:48 55.8 °F 54.9 °F 30.15 in SE 5.0 mph 16.0 mph 97 % 0.00 in 0 W/m2
05:53 55.8 °F 54.9 °F 30.15 in SE 7.0 mph 16.0 mph 97 % 0.00 in 0 W/m2
05:58 55.8 °F 54.9 °F 30.14 in SE 7.0 mph 12.0 mph 97 % 0.00 in 0 W/m2
06:03 55.8 °F 54.6 °F 30.14 in SE 7.0 mph 12.0 mph 96 % 0.00 in 0 W/m2
06:08 55.8 °F 54.6 °F 30.14 in SE 6.0 mph 10.0 mph 96 % 0.00 in 0 W/m2
06:13 55.8 °F 54.6 °F 30.14 in SE 7.0 mph 13.0 mph 96 % 0.00 in 0 W/m2
06:18 55.8 °F 54.6 °F 30.14 in SE 7.0 mph 13.0 mph 96 % 0.00 in 0 W/m2
06:23 55.8 °F 54.6 °F 30.14 in SE 6.0 mph 11.0 mph 96 % 0.00 in 0 W/m2
06:28 55.9 °F 54.8 °F 30.14 in SE 6.0 mph 11.0 mph 96 % 0.00 in 0 W/m2
06:33 55.9 °F 54.5 °F 30.15 in SE 6.0 mph 12.0 mph 95 % 0.00 in 0 W/m2
06:38 55.9 °F 54.5 °F 30.15 in SE 7.0 mph 12.0 mph 95 % 0.00 in 0 W/m2
06:43 55.9 °F 54.5 °F 30.15 in ESE 7.0 mph 12.0 mph 95 % 0.00 in 0 W/m2
06:48 55.9 °F 54.5 °F 30.15 in ESE 7.0 mph 13.0 mph 95 % 0.00 in 0 W/m2
06:53 55.9 °F 54.5 °F 30.14 in ESE 7.0 mph 13.0 mph 95 % 0.00 in 0 W/m2
06:58 55.9 °F 54.5 °F 30.14 in ESE 6.0 mph 9.0 mph 95 % 0.00 in 0 W/m2
07:04 55.8 °F 54.3 °F 30.14 in ESE 6.0 mph 9.0 mph 95 % 0.00 in 5 W/m2
07:09 55.8 °F 54.3 °F 30.14 in ESE 5.0 mph 10.0 mph 95 % 0.00 in 5 W/m2
07:14 55.8 °F 54.3 °F 30.14 in ESE 6.0 mph 10.0 mph 95 % 0.00 in 7 W/m2
07:19 55.8 °F 54.3 °F 30.14 in ESE 6.0 mph 10.0 mph 95 % 0.00 in 12 W/m2
07:24 55.8 °F 54.1 °F 30.14 in ESE 6.0 mph 10.0 mph 94 % 0.00 in 18 W/m2
07:29 55.8 °F 54.1 °F 30.14 in ESE 6.0 mph 10.0 mph 94 % 0.00 in 18 W/m2
07:34 55.8 °F 54.1 °F 30.15 in ESE 6.0 mph 9.0 mph 94 % 0.00 in 18 W/m2
07:39 55.8 °F 54.1 °F 30.15 in ESE 6.0 mph 10.0 mph 94 % 0.00 in 12 W/m2
07:44 55.8 °F 54.1 °F 30.15 in ESE 6.0 mph 11.0 mph 94 % 0.00 in 19 W/m2
07:49 55.8 °F 54.1 °F 30.15 in ESE 7.0 mph 12.0 mph 94 % 0.00 in 18 W/m2
07:54 55.8 °F 54.1 °F 30.15 in ESE 6.0 mph 12.0 mph 94 % 0.00 in 23 W/m2
07:59 55.8 °F 54.1 °F 30.15 in ESE 6.0 mph 10.0 mph 94 % 0.00 in 39 W/m2
08:04 55.8 °F 54.1 °F 30.15 in ESE 6.0 mph 11.0 mph 94 % 0.00 in 46 W/m2
08:09 55.8 °F 54.1 °F 30.15 in SE 7.0 mph 11.0 mph 94 % 0.00 in 51 W/m2
08:14 55.8 °F 54.1 °F 30.14 in SE 7.0 mph 11.0 mph 94 % 0.00 in 49 W/m2
08:19 55.9 °F 53.9 °F 30.14 in SE 6.0 mph 11.0 mph 93 % 0.00 in 37 W/m2
08:24 55.9 °F 53.9 °F 30.14 in SE 6.0 mph 10.0 mph 93 % 0.00 in 47 W/m2
08:29 55.9 °F 53.9 °F 30.14 in SE 5.0 mph 10.0 mph 93 % 0.00 in 62 W/m2
08:34 55.9 °F 53.9 °F 30.15 in SE 5.0 mph 11.0 mph 93 % 0.00 in 39 W/m2
08:39 56.1 °F 54.1 °F 30.15 in SE 6.0 mph 12.0 mph 93 % 0.00 in 28 W/m2
08:44 56.1 °F 54.1 °F 30.15 in SE 7.0 mph 13.0 mph 93 % 0.00 in 26 W/m2
08:49 56.1 °F 54.1 °F 30.14 in SE 7.0 mph 13.0 mph 93 % 0.00 in 30 W/m2
08:54 56.1 °F 54.1 °F 30.14 in SE 7.0 mph 10.0 mph 93 % 0.00 in 23 W/m2
08:59 56.1 °F 54.1 °F 30.14 in SE 6.0 mph 10.0 mph 93 % 0.00 in 21 W/m2
09:04 56.1 °F 53.8 °F 30.14 in SE 6.0 mph 12.0 mph 92 % 0.00 in 26 W/m2
09:09 56.1 °F 53.8 °F 30.14 in SE 7.0 mph 12.0 mph 92 % 0.00 in 39 W/m2
09:14 56.1 °F 53.8 °F 30.14 in SE 7.0 mph 14.0 mph 92 % 0.00 in 53 W/m2
09:20 56.3 °F 54.0 °F 30.14 in SE 7.0 mph 14.0 mph 92 % 0.00 in 58 W/m2
09:25 56.5 °F 54.2 °F 30.14 in SE 5.0 mph 10.0 mph 92 % 0.00 in 76 W/m2
09:30 56.5 °F 54.2 °F 30.14 in SE 5.0 mph 10.0 mph 92 % 0.00 in 60 W/m2
09:35 56.5 °F 54.2 °F 30.14 in SE 5.0 mph 9.0 mph 92 % 0.00 in 62 W/m2
09:40 56.7 °F 54.4 °F 30.14 in SE 6.0 mph 10.0 mph 92 % 0.00 in 69 W/m2
09:44 56.7 °F 54.4 °F 30.14 in SE 7.0 mph 12.0 mph 92 % 0.00 in 53 W/m2
09:50 56.7 °F 54.4 °F 30.14 in SE 6.0 mph 12.0 mph 92 % 0.00 in 65 W/m2
09:55 56.7 °F 54.1 °F 30.13 in SE 6.0 mph 11.0 mph 91 % 0.00 in 93 W/m2
10:00 56.8 °F 54.2 °F 30.13 in SE 8.0 mph 12.0 mph 91 % 0.00 in 84 W/m2
10:05 56.8 °F 54.2 °F 30.13 in SE 8.0 mph 12.0 mph 91 % 0.00 in 93 W/m2
10:10 57.0 °F 54.4 °F 30.13 in SE 8.0 mph 12.0 mph 91 % 0.00 in 114 W/m2
10:15 57.0 °F 54.1 °F 30.13 in SE 9.0 mph 16.0 mph 90 % 0.00 in 107 W/m2
10:20 57.0 °F 54.1 °F 30.13 in SE 10.0 mph 16.0 mph 90 % 0.00 in 60 W/m2
10:25 57.0 °F 54.1 °F 30.13 in SE 9.0 mph 16.0 mph 90 % 0.00 in 53 W/m2
10:30 57.0 °F 54.1 °F 30.13 in SE 8.0 mph 16.0 mph 90 % 0.00 in 39 W/m2
10:35 57.0 °F 53.8 °F 30.12 in SE 8.0 mph 13.0 mph 89 % 0.00 in 35 W/m2
10:40 57.0 °F 54.1 °F 30.12 in SE 8.0 mph 13.0 mph 90 % 0.00 in 42 W/m2
10:45 57.0 °F 54.1 °F 30.12 in SE 7.0 mph 13.0 mph 90 % 0.00 in 113 W/m2
10:50 57.2 °F 54.3 °F 30.12 in SE 6.0 mph 14.0 mph 90 % 0.00 in 153 W/m2
10:55 57.2 °F 54.0 °F 30.12 in SE 8.0 mph 14.0 mph 89 % 0.00 in 107 W/m2
11:00 57.4 °F 54.2 °F 30.12 in SE 8.0 mph 14.0 mph 89 % 0.00 in 105 W/m2
11:05 57.4 °F 54.2 °F 30.12 in SE 7.0 mph 12.0 mph 89 % 0.00 in 118 W/m2
11:10 57.6 °F 54.3 °F 30.11 in SE 7.0 mph 12.0 mph 89 % 0.00 in 123 W/m2
11:15 57.6 °F 54.0 °F 30.11 in SE 8.0 mph 15.0 mph 88 % 0.00 in 144 W/m2
11:20 57.7 °F 54.2 °F 30.11 in SE 7.0 mph 15.0 mph 88 % 0.00 in 132 W/m2
11:25 57.9 °F 54.1 °F 30.11 in SE 7.0 mph 16.0 mph 87 % 0.00 in 142 W/m2
11:30 58.1 °F 54.2 °F 30.11 in SE 8.0 mph 16.0 mph 87 % 0.00 in 172 W/m2
11:35 58.3 °F 54.4 °F 30.11 in SE 7.0 mph 14.0 mph 87 % 0.00 in 162 W/m2
11:40 58.5 °F 54.3 °F 30.11 in SE 8.0 mph 18.0 mph 86 % 0.00 in 125 W/m2
11:45 58.5 °F 54.0 °F 30.11 in SE 9.0 mph 18.0 mph 85 % 0.00 in 123 W/m2
11:50 58.5 °F 54.0 °F 30.10 in SE 9.0 mph 14.0 mph 85 % 0.00 in 162 W/m2
11:55 58.6 °F 54.1 °F 30.10 in SE 9.0 mph 14.0 mph 85 % 0.00 in 171 W/m2
12:00 58.6 °F 54.1 °F 30.10 in SE 9.0 mph 15.0 mph 85 % 0.00 in 169 W/m2
12:05 58.8 °F 54.3 °F 30.10 in SE 9.0 mph 15.0 mph 85 % 0.00 in 274 W/m2
12:10 59.0 °F 54.5 °F 30.10 in SE 9.0 mph 15.0 mph 85 % 0.00 in 292 W/m2
12:15 59.4 °F 54.5 °F 30.09 in SE 9.0 mph 14.0 mph 84 % 0.00 in 262 W/m2
12:20 59.4 °F 54.5 °F 30.09 in SE 9.0 mph 15.0 mph 84 % 0.00 in 251 W/m2
12:25 59.5 °F 54.7 °F 30.09 in SE 9.0 mph 15.0 mph 84 % 0.00 in 267 W/m2
12:30 59.7 °F 54.9 °F 30.08 in SE 9.0 mph 15.0 mph 84 % 0.00 in 719 W/m2
12:35 60.3 °F 55.4 °F 30.08 in SE 8.0 mph 15.0 mph 84 % 0.00 in 585 W/m2
12:40 60.6 °F 55.1 °F 30.08 in SE 9.0 mph 18.0 mph 82 % 0.00 in 281 W/m2
12:45 60.6 °F 54.8 °F 30.08 in SE 10.0 mph 18.0 mph 81 % 0.00 in 281 W/m2
12:50 60.8 °F 54.9 °F 30.08 in SE 9.0 mph 15.0 mph 81 % 0.00 in 345 W/m2
12:55 60.8 °F 54.9 °F 30.08 in SE 9.0 mph 18.0 mph 81 % 0.00 in 241 W/m2
13:00 60.8 °F 54.6 °F 30.07 in SE 11.0 mph 21.0 mph 80 % 0.00 in 330 W/m2
13:06 60.8 °F 54.9 °F 30.07 in SE 11.0 mph 22.0 mph 81 % 0.00 in 229 W/m2
13:11 60.8 °F 54.6 °F 30.07 in SE 11.0 mph 22.0 mph 80 % 0.00 in 258 W/m2
13:16 61.0 °F 54.8 °F 30.07 in SE 11.0 mph 18.0 mph 80 % 0.00 in 257 W/m2
13:21 61.0 °F 54.8 °F 30.07 in SE 10.0 mph 20.0 mph 80 % 0.00 in 232 W/m2
13:26 61.0 °F 54.8 °F 30.07 in SE 11.0 mph 20.0 mph 80 % 0.00 in 225 W/m2
13:31 61.2 °F 55.3 °F 30.06 in SE 10.0 mph 18.0 mph 81 % 0.00 in 814 W/m2
13:36 61.7 °F 55.5 °F 30.06 in SE 8.0 mph 15.0 mph 80 % 0.00 in 494 W/m2
13:41 62.1 °F 55.5 °F 30.06 in SE 8.0 mph 18.0 mph 79 % 0.00 in 359 W/m2
13:46 62.1 °F 55.5 °F 30.06 in ESE 9.0 mph 18.0 mph 79 % 0.00 in 380 W/m2
13:51 62.4 °F 55.5 °F 30.05 in ESE 10.0 mph 18.0 mph 78 % 0.00 in 439 W/m2
13:56 62.6 °F 55.6 °F 30.05 in SE 9.0 mph 18.0 mph 78 % 0.00 in 316 W/m2
14:01 62.6 °F 55.3 °F 30.05 in SE 11.0 mph 20.0 mph 77 % 0.00 in 292 W/m2
14:06 62.8 °F 55.5 °F 30.04 in SE 11.0 mph 20.0 mph 77 % 0.00 in 383 W/m2
14:11 62.8 °F 55.1 °F 30.04 in SE 10.0 mph 22.0 mph 76 % 0.00 in 264 W/m2
14:16 63.0 °F 55.3 °F 30.04 in SE 10.0 mph 22.0 mph 76 % 0.00 in 638 W/m2
14:21 63.3 °F 55.6 °F 30.04 in SE 10.0 mph 15.0 mph 76 % 0.00 in 359 W/m2
14:26 63.5 °F 55.4 °F 30.03 in SE 10.0 mph 21.0 mph 75 % 0.00 in 320 W/m2
14:31 63.3 °F 55.3 °F 30.03 in SE 11.0 mph 21.0 mph 75 % 0.00 in 193 W/m2
14:36 63.1 °F 55.4 °F 30.03 in SE 11.0 mph 21.0 mph 76 % 0.00 in 241 W/m2
14:41 63.1 °F 55.8 °F 30.03 in SE 10.0 mph 20.0 mph 77 % 0.00 in 265 W/m2
14:46 63.3 °F 56.0 °F 30.02 in SE 9.0 mph 18.0 mph 77 % 0.00 in 448 W/m2
14:51 63.3 °F 56.0 °F 30.02 in SE 9.0 mph 18.0 mph 77 % 0.00 in 165 W/m2
14:56 63.3 °F 55.6 °F 30.02 in SE 9.0 mph 15.0 mph 76 % 0.00 in 130 W/m2
15:01 63.3 °F 55.6 °F 30.02 in SE 9.0 mph 15.0 mph 76 % 0.00 in 181 W/m2
15:06 63.3 °F 56.0 °F 30.02 in SE 10.0 mph 18.0 mph 77 % 0.00 in 151 W/m2
15:11 63.3 °F 56.0 °F 30.02 in SE 10.0 mph 18.0 mph 77 % 0.00 in 142 W/m2
15:16 63.3 °F 56.0 °F 30.02 in SE 10.0 mph 19.0 mph 77 % 0.00 in 91 W/m2
15:21 63.1 °F 55.8 °F 30.02 in SE 11.0 mph 20.0 mph 77 % 0.00 in 83 W/m2
15:26 63.1 °F 55.8 °F 30.01 in SE 11.0 mph 21.0 mph 77 % 0.00 in 181 W/m2
15:31 63.1 °F 55.8 °F 30.01 in SE 12.0 mph 22.0 mph 77 % 0.00 in 202 W/m2
15:36 63.3 °F 56.3 °F 30.01 in SE 12.0 mph 22.0 mph 78 % 0.00 in 290 W/m2
15:41 63.5 °F 56.5 °F 30.00 in SE 10.0 mph 22.0 mph 78 % 0.00 in 360 W/m2
15:46 63.9 °F 56.5 °F 30.00 in SE 10.0 mph 16.0 mph 77 % 0.00 in 178 W/m2
15:51 63.9 °F 56.5 °F 30.00 in SE 11.0 mph 19.0 mph 77 % 0.00 in 162 W/m2
15:54 63.7 °F 56.3 °F 30.00 in SE 10.0 mph 19.0 mph 77 % 0.00 in 160 W/m2
15:59 63.7 °F 56.3 °F 30.00 in SE 9.0 mph 18.0 mph 77 % 0.00 in 149 W/m2
16:04 63.7 °F 56.3 °F 30.00 in SE 9.0 mph 18.0 mph 77 % 0.00 in 127 W/m2
16:09 63.7 °F 56.3 °F 30.00 in SE 10.0 mph 19.0 mph 77 % 0.00 in 123 W/m2
16:14 63.5 °F 56.2 °F 30.00 in SE 10.0 mph 19.0 mph 77 % 0.00 in 123 W/m2
16:19 63.5 °F 56.2 °F 30.00 in SE 9.0 mph 15.0 mph 77 % 0.00 in 93 W/m2
16:24 63.5 °F 56.5 °F 29.99 in SE 8.0 mph 13.0 mph 78 % 0.00 in 93 W/m2
16:29 63.5 °F 56.5 °F 29.99 in SE 8.0 mph 12.0 mph 78 % 0.00 in 100 W/m2
16:34 63.3 °F 56.3 °F 29.99 in SE 9.0 mph 14.0 mph 78 % 0.00 in 90 W/m2
16:39 63.3 °F 56.3 °F 29.99 in SE 9.0 mph 16.0 mph 78 % 0.00 in 93 W/m2
16:44 63.3 °F 56.3 °F 29.98 in SE 9.0 mph 19.0 mph 78 % 0.00 in 88 W/m2
16:49 63.5 °F 56.5 °F 29.98 in SE 10.0 mph 19.0 mph 78 % 0.00 in 84 W/m2
16:54 63.5 °F 56.5 °F 29.98 in SE 10.0 mph 15.0 mph 78 % 0.00 in 91 W/m2
16:59 63.5 °F 56.9 °F 29.98 in SE 10.0 mph 16.0 mph 79 % 0.00 in 84 W/m2
17:04 63.5 °F 56.5 °F 29.98 in SE 9.0 mph 16.0 mph 78 % 0.00 in 70 W/m2
17:09 63.3 °F 56.7 °F 29.98 in SE 9.0 mph 15.0 mph 79 % 0.00 in 58 W/m2
17:14 63.3 °F 56.7 °F 29.98 in SE 8.0 mph 13.0 mph 79 % 0.00 in 47 W/m2
17:19 63.3 °F 56.7 °F 29.98 in SE 8.0 mph 13.0 mph 79 % 0.00 in 35 W/m2
17:24 63.3 °F 56.7 °F 29.98 in SE 7.0 mph 13.0 mph 79 % 0.00 in 46 W/m2
17:29 63.1 °F 56.9 °F 29.98 in ESE 7.0 mph 12.0 mph 80 % 0.00 in 37 W/m2
17:34 63.1 °F 56.9 °F 29.98 in ESE 7.0 mph 11.0 mph 80 % 0.00 in 42 W/m2
17:39 63.0 °F 56.7 °F 29.98 in SE 8.0 mph 13.0 mph 80 % 0.00 in 39 W/m2
17:44 63.0 °F 56.7 °F 29.98 in SE 8.0 mph 14.0 mph 80 % 0.00 in 28 W/m2
17:49 63.0 °F 57.0 °F 29.98 in ESE 8.0 mph 14.0 mph 81 % 0.00 in 21 W/m2
17:54 63.0 °F 57.0 °F 29.98 in ESE 7.0 mph 13.0 mph 81 % 0.00 in 30 W/m2
17:59 63.0 °F 57.0 °F 29.98 in ESE 8.0 mph 14.0 mph 81 % 0.00 in 23 W/m2
18:04 63.0 °F 57.0 °F 29.97 in ESE 8.0 mph 14.0 mph 81 % 0.00 in 21 W/m2
18:09 63.0 °F 57.0 °F 29.97 in ESE 7.0 mph 14.0 mph 81 % 0.00 in 14 W/m2
18:14 63.0 °F 57.0 °F 29.97 in ESE 8.0 mph 15.0 mph 81 % 0.00 in 12 W/m2
18:19 63.0 °F 57.4 °F 29.97 in ESE 7.0 mph 15.0 mph 82 % 0.00 in 5 W/m2
18:24 62.8 °F 57.2 °F 29.97 in SE 6.0 mph 11.0 mph 82 % 0.00 in 7 W/m2
18:29 62.8 °F 57.2 °F 29.97 in SE 6.0 mph 12.0 mph 82 % 0.00 in 0 W/m2
18:34 62.8 °F 57.5 °F 29.97 in SE 7.0 mph 12.0 mph 83 % 0.00 in 0 W/m2
18:39 62.4 °F 57.5 °F 29.97 in SE 7.0 mph 14.0 mph 84 % 0.00 in 0 W/m2
18:44 62.2 °F 57.7 °F 29.97 in SE 8.0 mph 14.0 mph 85 % 0.00 in 0 W/m2
18:49 62.1 °F 57.8 °F 29.98 in SE 8.0 mph 14.0 mph 86 % 0.01 in 0 W/m2
18:54 61.7 °F 57.8 °F 29.98 in SE 7.0 mph 13.0 mph 87 % 0.01 in 0 W/m2
18:59 61.5 °F 57.9 °F 29.98 in SE 6.0 mph 12.0 mph 88 % 0.02 in 0 W/m2
19:04 61.3 °F 58.1 °F 29.98 in South 6.0 mph 10.0 mph 89 % 0.02 in 0 W/m2
19:09 61.0 °F 57.7 °F 29.98 in SSW 7.0 mph 15.0 mph 89 % 0.04 in 0 W/m2
19:14 60.8 °F 57.8 °F 29.98 in SSE 9.0 mph 15.0 mph 90 % 0.05 in 0 W/m2
19:19 60.6 °F 57.7 °F 29.98 in SE 9.0 mph 14.0 mph 90 % 0.05 in 0 W/m2
19:24 60.6 °F 58.0 °F 29.98 in SE 7.0 mph 11.0 mph 91 % 0.06 in 0 W/m2
19:29 60.4 °F 57.8 °F 29.98 in SE 6.0 mph 11.0 mph 91 % 0.06 in 0 W/m2
19:34 60.4 °F 58.1 °F 29.98 in SE 6.0 mph 11.0 mph 92 % 0.07 in 0 W/m2
19:35 60.4 °F 58.1 °F 29.98 in SSE 6.0 mph 11.0 mph 92 % 0.07 in 0 W/m2
19:40 60.3 °F 57.9 °F 29.98 in SE 5.0 mph 9.0 mph 92 % 0.07 in 0 W/m2
19:45 60.3 °F 57.9 °F 29.98 in SE 6.0 mph 10.0 mph 92 % 0.07 in 0 W/m2
19:50 60.1 °F 58.0 °F 29.98 in SE 6.0 mph 10.0 mph 93 % 0.07 in 0 W/m2
19:55 60.1 °F 58.0 °F 29.98 in SE 5.0 mph 8.0 mph 93 % 0.08 in 0 W/m2
20:00 60.1 °F 58.0 °F 29.98 in SE 4.0 mph 7.0 mph 93 % 0.07 in 0 W/m2
20:05 60.1 °F 58.0 °F 29.98 in SE 5.0 mph 9.0 mph 93 % 0.06 in 0 W/m2
20:10 59.9 °F 57.9 °F 29.97 in SE 6.0 mph 13.0 mph 93 % 0.05 in 0 W/m2
20:15 59.7 °F 57.7 °F 29.98 in SSE 6.0 mph 13.0 mph 93 % 0.06 in 0 W/m2
20:20 59.7 °F 57.7 °F 29.97 in SSE 6.0 mph 11.0 mph 93 % 0.06 in 0 W/m2
20:25 59.5 °F 57.8 °F 29.98 in SSE 6.0 mph 12.0 mph 94 % 0.05 in 0 W/m2
20:30 59.5 °F 57.8 °F 29.98 in SSE 6.0 mph 12.0 mph 94 % 0.05 in 0 W/m2
20:35 59.5 °F 57.8 °F 29.98 in SSE 6.0 mph 10.0 mph 94 % 0.05 in 0 W/m2
20:40 59.4 °F 57.6 °F 29.97 in SSE 6.0 mph 11.0 mph 94 % 0.06 in 0 W/m2
20:45 58.8 °F 56.8 °F 29.98 in SSE 7.0 mph 14.0 mph 93 % 0.06 in 0 W/m2
20:50 58.6 °F 56.3 °F 29.97 in SSE 7.0 mph 14.0 mph 92 % 0.06 in 0 W/m2
20:55 58.5 °F 56.1 °F 29.98 in SSE 5.0 mph 11.0 mph 92 % 0.06 in 0 W/m2
21:00 58.3 °F 56.0 °F 29.98 in SSE 5.0 mph 11.0 mph 92 % 0.06 in 0 W/m2
21:05 58.1 °F 55.8 °F 29.98 in SSE 6.0 mph 11.0 mph 92 % 0.06 in 0 W/m2
21:10 58.1 °F 56.1 °F 29.98 in South 6.0 mph 14.0 mph 93 % 0.07 in 0 W/m2
21:15 57.9 °F 55.6 °F 29.98 in SSE 9.0 mph 16.0 mph 92 % 0.06 in 0 W/m2
21:20 57.7 °F 55.4 °F 29.98 in SSE 10.0 mph 16.0 mph 92 % 0.07 in 0 W/m2
21:25 57.9 °F 55.6 °F 29.98 in SSE 8.0 mph 16.0 mph 92 % 0.07 in 0 W/m2
21:30 57.7 °F 55.4 °F 29.98 in SSE 7.0 mph 16.0 mph 92 % 0.06 in 0 W/m2
21:35 57.4 °F 54.8 °F 29.98 in SSE 8.0 mph 16.0 mph 91 % 0.06 in 0 W/m2
21:40 57.2 °F 54.6 °F 29.98 in SE 8.0 mph 13.0 mph 91 % 0.07 in 0 W/m2
21:45 57.0 °F 54.7 °F 29.98 in SE 9.0 mph 16.0 mph 92 % 0.06 in 0 W/m2
21:50 56.8 °F 54.5 °F 29.97 in SE 9.0 mph 16.0 mph 92 % 0.06 in 0 W/m2
21:55 56.7 °F 54.4 °F 29.97 in SE 9.0 mph 15.0 mph 92 % 0.06 in 0 W/m2
22:00 56.7 °F 54.7 °F 29.98 in SE 8.0 mph 15.0 mph 93 % 0.07 in 0 W/m2
22:05 56.5 °F 54.5 °F 29.98 in SE 9.0 mph 16.0 mph 93 % 0.07 in 0 W/m2
22:10 56.5 °F 54.5 °F 29.97 in SE 10.0 mph 16.0 mph 93 % 0.06 in 0 W/m2
22:16 56.5 °F 54.5 °F 29.97 in SE 9.0 mph 16.0 mph 93 % 0.07 in 0 W/m2
22:21 56.3 °F 54.6 °F 29.97 in SE 10.0 mph 21.0 mph 94 % 0.07 in 0 W/m2
22:26 56.3 °F 54.6 °F 29.97 in SE 9.0 mph 21.0 mph 94 % 0.06 in 0 W/m2
22:31 56.3 °F 54.6 °F 29.97 in SSE 8.0 mph 13.0 mph 94 % 0.07 in 0 W/m2
22:36 56.3 °F 54.6 °F 29.97 in SE 9.0 mph 15.0 mph 94 % 0.07 in 0 W/m2
22:41 56.3 °F 54.6 °F 29.97 in SE 9.0 mph 15.0 mph 94 % 0.06 in 0 W/m2
22:46 56.5 °F 54.8 °F 29.97 in SE 8.0 mph 14.0 mph 94 % 0.06 in 0 W/m2
22:51 56.5 °F 54.8 °F 29.97 in SE 7.0 mph 11.0 mph 94 % 0.06 in 0 W/m2
22:56 56.5 °F 55.1 °F 29.97 in SE 7.0 mph 12.0 mph 95 % 0.06 in 0 W/m2
23:01 56.5 °F 55.1 °F 29.97 in SE 7.0 mph 14.0 mph 95 % 0.05 in 0 W/m2
23:06 56.5 °F 55.1 °F 29.97 in SE 7.0 mph 14.0 mph 95 % 0.05 in 0 W/m2
23:11 56.5 °F 55.1 °F 29.97 in SE 7.0 mph 11.0 mph 95 % 0.04 in 0 W/m2
23:16 56.5 °F 55.1 °F 29.97 in SE 7.0 mph 11.0 mph 95 % 0.03 in 0 W/m2
23:21 56.5 °F 55.1 °F 29.97 in SE 7.0 mph 11.0 mph 95 % 0.04 in 0 W/m2
23:26 56.5 °F 55.1 °F 29.97 in SE 8.0 mph 14.0 mph 95 % 0.05 in 0 W/m2
23:31 56.5 °F 55.1 °F 29.97 in SSE 8.0 mph 14.0 mph 95 % 0.04 in 0 W/m2
23:36 56.5 °F 55.1 °F 29.97 in SSE 8.0 mph 13.0 mph 95 % 0.04 in 0 W/m2
23:41 56.5 °F 55.1 °F 29.97 in SSE 7.0 mph 11.0 mph 95 % 0.05 in 0 W/m2
23:46 56.5 °F 55.1 °F 29.97 in SE 7.0 mph 12.0 mph 95 % 0.06 in 0 W/m2
23:51 56.5 °F 55.1 °F 29.97 in SE 7.0 mph 12.0 mph 95 % 0.06 in 0 W/m2
23:56 56.5 °F 55.1 °F 29.97 in SE 7.0 mph 12.0 mph 95 % 0.06 in 0 W/m2
Delerius-Weather
Compliments of Weather Underground - 2.25 mb

Data updates at regular intervals.